Nearby METAR Reports

(scroll for additional cities)

 

KPSP - Palm Springs, California, USA
Distance from station: WNW 7mi, 11km
Updated: Wed, 21-Aug-2019 12:53pm PDT
Clear
Clear
 Wind from varies
Wind: varies 3 mph , 6 km/h
Temperature: 111°F , 44°C
Dew Point: 21°F , -6°C
Humidity: 4%
Barometer: 29.73 inHg , 1006.8 hPa
Clouds: Clear
Visibility: 10 miles , 16 km
2019/08/21 19:53 KPSP 211953Z VRB03KT 10SM CLR 44/M06 A2973 RMK AO2 SLP061 T04391056
KTRM - Thermal/Palm Spg, California, USA
Distance from station: SE 16mi, 26km
Updated: Wed, 21-Aug-2019 12:52pm PDT
Clear
Clear
 Wind from S
Wind: S 6 mph , 9 km/h
Temperature: 115°F , 46°C
Dew Point: 28°F , -2°C
Humidity: 5%
Barometer: 29.66 inHg , 1004.4 hPa
Clouds: Clear
Visibility: 10 miles , 16 km
2019/08/21 19:52 KTRM 211952Z AUTO 18005KT 10SM CLR 46/M02 A2966 RMK AO2 SLP047 T04561022
 
KNXP - Twentynine Palms, California, USA
Distance from station: NNE 37mi, 60km
Updated: Wed, 21-Aug-2019 12:56pm PDT
Clear
Clear
 Wind from NE
Wind: NE 3 mph , 6 km/h
Temperature: 104°F , 40°C
Dew Point: 21°F , -6°C
Humidity: 5%
Barometer: 29.92 inHg , 1013.2 hPa
Clouds: Clear
Visibility: 10 miles , 16 km
2019/08/21 19:56 KNXP 211956Z 04003KT 10SM CLR 40/M06 A2992 RMK AO2 SLP086 T04001056
KL35 - Big Bear City, California, USA
Distance from station: NW 43mi, 69km
Updated: Wed, 21-Aug-2019 12:55pm PDT
Clear
Clear
 Wind from W
Wind: W 10 mph , 17 km/h, Gust: 18 mph , 30 km/h
Temperature: 81°F , 27°C
Dew Point: 9°F , -13°C
Humidity: 6%
Barometer: 30.23 inHg , 1023.7 hPa
Clouds: Clear
Visibility: 10 miles , 16 km
2019/08/21 19:55 KL35 211955Z AUTO 26009G16KT 10SM CLR 27/M13 A3023 RMK AO2
 
KF70 - Murrieta/Temecula, California, USA
Distance from station: WSW 45mi, 73km
Updated: Wed, 21-Aug-2019 12:55pm PDT
Clear
Clear
 Wind from SW
Wind: SW 6 mph , 9 km/h
Temperature: 93°F , 34°C
Dew Point: 46°F , 8°C
Humidity: 20%
Barometer: 29.86 inHg , 1011.2 hPa
Clouds: Clear
Visibility: 10 miles , 16 km
2019/08/21 19:55 KF70 211955Z AUTO 22005KT 10SM CLR 34/08 A2986 RMK AO1
KRIV - Riverside/March, California, USA
Distance from station: W 51mi, 82km
Updated: Wed, 21-Aug-2019 12:58pm PDT
Clear
Clear
 Wind from WNW
Wind: WNW 9 mph , 15 km/h
Temperature: 97°F , 36°C
Dew Point: 36°F , 2°C
Humidity: 12%
Barometer: 29.86 inHg , 1011.2 hPa
Clouds: Clear
Visibility: 10 miles , 16 km
2019/08/21 19:58 KRIV 211958Z AUTO 29008KT 10SM CLR 36/02 A2986 RMK AO2 SLP097 T03630023
 
KSBD - San Bernardino, California, USA
Distance from station: WNW 54mi, 86km
Updated: Wed, 21-Aug-2019 12:49pm PDT
Clear
Clear
 Wind from W
Wind: W 9 mph , 15 km/h
Temperature: 99°F , 37°C
Dew Point: 39°F , 4°C
Humidity: 13%
Barometer: 29.85 inHg , 1010.8 hPa
Clouds: Clear
Visibility: 10 miles , 16 km
2019/08/21 19:49 KSBD 211949Z 26008KT 10SM SKC 37/04 A2985
KRNM - Ramona, California, USA
Distance from station: SSW 60mi, 96km
Updated: Wed, 21-Aug-2019 12:53pm PDT
Clear
Clear
 Wind from NW
Wind: NW 9 mph , 15 km/h
Temperature: 93°F , 34°C
Dew Point: 57°F , 14°C
Humidity: 30%
Barometer: 29.87 inHg , 1011.5 hPa
Clouds: Clear
Visibility: 10 miles , 16 km
2019/08/21 19:53 KRNM 211953Z 31008KT 10SM CLR 34/14 A2987 RMK AO2 SLP096 T03440139
 
KRAL - Riverside, California, USA
Distance from station: W 62mi, 100km
Updated: Wed, 21-Aug-2019 12:53pm PDT
Clear
Clear
 Wind from varies
Wind: varies 5 mph , 7 km/h
Temperature: 97°F , 36°C
Dew Point: 48°F , 9°C
Humidity: 19%
Barometer: 29.83 inHg , 1010.2 hPa
Clouds: Clear
Visibility: 10 miles , 16 km
2019/08/21 19:53 KRAL 211953Z VRB04KT 10SM CLR 36/09 A2983 RMK AO2 SLP085 T03560094
KOKB - Oceanside, California, USA
Distance from station: SW 68mi, 109km
Updated: Wed, 21-Aug-2019 12:52pm PDT
Clear
Clear
 Wind from W
Wind: W 9 mph , 15 km/h
Temperature: 79°F , 26°C
Dew Point: 63°F , 17°C
Humidity: 58%
Barometer: 29.83 inHg , 1010.2 hPa
Clouds: Clear
Visibility: 8 miles , 13 km
2019/08/21 19:52 KOKB 211952Z AUTO 26008KT 8SM CLR 26/17 A2983 RMK AO2 SLP099 T02610172
 
KONT - Ontario, California, USA
Distance from station: WNW 71mi, 114km
Updated: Wed, 21-Aug-2019 12:53pm PDT
Clear
Clear
 Wind from varies
Wind: varies 3 mph , 6 km/h
Temperature: 93°F , 34°C
Dew Point: 48°F , 9°C
Humidity: 21%
Barometer: 29.84 inHg , 1010.5 hPa
Clouds: Clear
Visibility: 10 miles , 16 km
2019/08/21 19:53 KONT 211953Z VRB03KT 10SM CLR 34/09 A2984 RMK AO2 SLP085 T03440094
KNJK - El Centro Naf, California, USA
Distance from station: SSE 78mi, 126km
Updated: Wed, 21-Aug-2019 12:56pm PDT
Clear
Clear
 Wind from SE
Wind: SE 8 mph , 13 km/h
Temperature: 109°F , 43°C
Dew Point: 28°F , -2°C
Humidity: 6%
Barometer: 29.70 inHg , 1005.8 hPa
Clouds: Clear
Visibility: 10 miles , 16 km
2019/08/21 19:56 KNJK 211956Z 13007KT 10SM CLR 43/M02 A2970 RMK AO2 SLP072 T04281017
 
KSEE - San Diego/Santee, California, USA
Distance from station: SSW 74mi, 120km
Updated: Wed, 21-Aug-2019 12:55pm PDT
Clear
Clear
 Wind from WSW
Wind: WSW 8 mph , 13 km/h
Temperature: 91°F , 33°C
Dew Point: 63°F , 17°C
Humidity: 38%
Barometer: 29.83 inHg , 1010.2 hPa
Clouds: Clear
Visibility: 10 miles , 16 km
2019/08/21 19:55 KSEE 211955Z 24007KT 10SM SKC 33/17 A2983
KCNO - Chino, California, USA
Distance from station: W 72mi, 116km
Updated: Wed, 21-Aug-2019 12:53pm PDT
Clear
Clear
 Wind from W
Wind: W 8 mph , 13 km/h
Temperature: 97°F , 36°C
Dew Point: 52°F , 11°C
Humidity: 22%
Barometer: 29.84 inHg , 1010.5 hPa
Clouds: Clear
Visibility: 10 miles , 16 km
2019/08/21 19:53 KCNO 211953Z 28007KT 10SM CLR 36/11 A2984 RMK AO2 SLP097 T03560111 $

Metar display script from Saratoga-Weather.org